createdAt,value
2019-05-01T00:00:28.545Z,8.73
2019-05-01T00:03:04.009Z,7.97
2019-05-01T00:05:47.328Z,9.45
2019-05-01T00:08:17.297Z,9.45
2019-05-01T00:10:46.940Z,9.93
2019-05-01T00:13:16.852Z,9.70
2019-05-01T00:15:47.327Z,9.65
2019-05-01T00:18:17.263Z,9.70
2019-05-01T00:20:47.175Z,9.03
2019-05-01T00:23:17.124Z,10.50
2019-05-01T00:25:47.011Z,10.18
2019-05-01T00:28:17.188Z,8.93
2019-05-01T00:30:46.893Z,9.73
2019-05-01T00:33:16.981Z,9.68
2019-05-01T00:35:47.107Z,9.68
2019-05-01T00:38:17.191Z,10.03
2019-05-01T00:40:50.113Z,9.80
2019-05-01T00:43:20.102Z,9.30
2019-05-01T00:45:50.005Z,9.45
2019-05-01T00:48:19.730Z,9.93
2019-05-01T00:50:49.719Z,9.78
2019-05-01T00:53:19.457Z,10.15
2019-05-01T00:55:50.986Z,9.78
2019-05-01T00:58:28.494Z,10.32
2019-05-01T01:00:59.772Z,9.20
2019-05-01T01:03:29.540Z,9.53
2019-05-01T01:05:59.515Z,9.98
2019-05-01T01:08:29.451Z,10.38
2019-05-01T01:10:59.119Z,10.20
2019-05-01T01:13:29.112Z,9.63
2019-05-01T01:15:59.080Z,10.18
2019-05-01T01:18:28.730Z,9.90
2019-05-01T01:20:58.690Z,10.30
2019-05-01T01:23:28.342Z,9.60
2019-05-01T01:25:58.012Z,10.55
2019-05-01T01:28:27.899Z,10.18
2019-05-01T01:30:57.841Z,9.83
2019-05-01T01:33:27.756Z,9.35
2019-05-01T01:35:57.563Z,9.38
2019-05-01T01:38:27.327Z,9.93
2019-05-01T01:40:58.591Z,9.70
2019-05-01T01:43:36.052Z,8.93
2019-05-01T01:46:19.252Z,9.88
2019-05-01T01:51:18.305Z,9.18
2019-05-01T01:53:48.003Z,9.78
2019-05-01T01:56:17.989Z,9.30
2019-05-01T01:58:47.976Z,9.78
2019-05-01T02:01:25.099Z,9.85
2019-05-01T02:03:56.389Z,9.53
2019-05-01T02:06:26.333Z,9.53
2019-05-01T02:08:56.970Z,10.18
2019-05-01T02:11:26.956Z,9.88
2019-05-01T02:13:56.661Z,10.00
2019-05-01T02:16:26.326Z,9.40
2019-05-01T02:18:56.227Z,10.60
2019-05-01T02:21:25.932Z,8.65
2019-05-01T02:23:57.512Z,9.15
2019-05-01T02:26:29.056Z,9.05
2019-05-01T02:29:00.585Z,9.78
2019-05-01T02:31:35.133Z,9.50
2019-05-01T02:34:04.820Z,8.35
2019-05-01T02:36:34.883Z,9.48
2019-05-01T02:39:07.733Z,8.88
2019-05-01T02:41:41.563Z,9.53
2019-05-01T02:46:42.643Z,9.60
2019-05-01T02:49:18.923Z,10.18
2019-05-01T02:51:48.851Z,10.00
2019-05-01T02:54:18.493Z,9.63
2019-05-01T02:56:55.580Z,10.00
2019-05-01T02:59:25.941Z,9.50
2019-05-01T03:01:55.937Z,9.75
2019-05-01T03:04:25.624Z,9.35
2019-05-01T03:06:55.366Z,10.35
2019-05-01T03:09:25.358Z,9.75
2019-05-01T03:11:55.297Z,9.65
2019-05-01T03:14:25.112Z,9.48
2019-05-01T03:16:55.497Z,9.95
2019-05-01T03:19:35.896Z,10.00
2019-05-01T03:22:18.792Z,9.60
2019-05-01T03:24:48.494Z,9.63
2019-05-01T03:27:18.154Z,9.98
2019-05-01T03:29:48.101Z,10.58
2019-05-01T03:32:19.691Z,10.23
2019-05-01T03:34:52.582Z,10.28
2019-05-01T03:37:21.584Z,11.03
2019-05-01T03:39:51.566Z,10.35
2019-05-01T03:42:21.803Z,10.28
2019-05-01T03:44:51.507Z,10.05
2019-05-01T03:47:21.687Z,10.53
2019-05-01T03:49:51.388Z,9.88
2019-05-01T03:52:21.091Z,12.28
2019-05-01T03:54:51.059Z,10.48
2019-05-01T03:57:21.563Z,11.85
2019-05-01T03:59:51.611Z,10.70
2019-05-01T04:02:32.824Z,11.25
2019-05-01T04:04:54.691Z,10.82
2019-05-01T04:07:24.676Z,9.95
2019-05-01T04:09:54.666Z,10.35
2019-05-01T04:12:24.693Z,10.00
2019-05-01T04:14:54.628Z,10.25
2019-05-01T04:17:32.159Z,10.63
2019-05-01T04:20:02.819Z,10.35
2019-05-01T04:22:33.403Z,10.25
2019-05-01T04:25:03.876Z,10.10
2019-05-01T04:27:35.950Z,10.10
2019-05-01T04:30:17.744Z,10.20
2019-05-01T04:32:52.698Z,10.05
2019-05-01T04:35:28.624Z,10.05
2019-05-01T04:37:59.076Z,10.98
2019-05-01T04:40:29.253Z,11.33
2019-05-01T04:42:59.594Z,11.20
2019-05-01T04:45:29.921Z,9.85
2019-05-01T04:48:00.090Z,10.08
2019-05-01T04:50:30.482Z,10.03
2019-05-01T04:53:00.572Z,9.23
2019-05-01T04:55:32.059Z,10.23
2019-05-01T04:58:02.735Z,10.95
2019-05-01T05:00:33.013Z,11.03
2019-05-01T05:03:05.569Z,10.93
2019-05-01T05:05:37.146Z,11.18
2019-05-01T05:08:07.564Z,11.05
2019-05-01T05:10:37.887Z,10.45
2019-05-01T05:13:09.903Z,12.20
2019-05-01T05:15:42.249Z,12.30
2019-05-01T05:18:12.775Z,12.40
2019-05-01T05:20:43.122Z,11.88
2019-05-01T05:23:13.528Z,12.55
2019-05-01T05:25:43.601Z,13.13
2019-05-01T05:28:13.828Z,11.70
2019-05-01T05:30:45.742Z,11.88
2019-05-01T05:33:18.944Z,11.12
2019-05-01T05:35:50.573Z,10.78
2019-05-01T05:38:26.114Z,11.65
2019-05-01T05:41:00.298Z,11.45
2019-05-01T05:43:30.338Z,11.53
2019-05-01T05:46:00.742Z,13.90
2019-05-01T05:48:31.234Z,12.23
2019-05-01T05:51:03.182Z,12.15
2019-05-01T05:53:46.309Z,10.70
2019-05-01T05:56:20.305Z,12.23
2019-05-01T05:58:54.423Z,11.55
2019-05-01T06:01:28.848Z,11.28
2019-05-01T06:04:19.539Z,12.13
2019-05-01T06:06:54.111Z,11.25
2019-05-01T06:09:28.688Z,13.45
2019-05-01T06:12:13.230Z,13.65
2019-05-01T06:14:49.159Z,12.73
2019-05-01T06:17:28.668Z,12.95
2019-05-01T06:19:57.797Z,13.10
2019-05-01T06:22:32.028Z,8.83
2019-05-01T06:25:21.636Z,12.78
2019-05-01T06:27:49.247Z,13.88
2019-05-01T06:30:17.495Z,13.00
2019-05-01T06:32:47.923Z,13.32
2019-05-01T06:35:17.928Z,13.08
2019-05-01T06:38:15.243Z,14.07
2019-05-01T06:40:48.463Z,14.20
2019-05-01T06:43:44.140Z,13.55
2019-05-01T06:46:16.604Z,13.03
2019-05-01T06:49:07.056Z,13.83
2019-05-01T06:51:42.153Z,13.95
2019-05-01T06:54:16.186Z,14.43
2019-05-01T06:56:47.507Z,13.50
2019-05-01T06:59:18.307Z,14.13
2019-05-01T07:01:53.272Z,14.07
2019-05-01T07:04:22.673Z,12.35
2019-05-01T07:06:53.217Z,14.03
2019-05-01T07:09:27.996Z,14.13
2019-05-01T07:11:56.201Z,12.82
2019-05-01T07:14:26.593Z,14.28
2019-05-01T07:16:56.520Z,13.90
2019-05-01T07:19:46.509Z,14.90
2019-05-01T07:22:17.888Z,13.43
2019-05-01T07:24:49.165Z,13.68
2019-05-01T07:27:23.746Z,13.78
2019-05-01T07:29:52.909Z,13.45
2019-05-01T07:32:23.641Z,15.03
2019-05-01T07:34:56.798Z,13.55
2019-05-01T07:37:27.803Z,14.25
2019-05-01T07:39:58.116Z,15.20
2019-05-01T07:42:33.108Z,16.32
2019-05-01T07:45:23.358Z,16.10
2019-05-01T07:48:01.105Z,15.03
2019-05-01T07:50:31.851Z,16.23
2019-05-01T07:53:01.161Z,16.40
2019-05-01T07:55:37.644Z,15.75
2019-05-01T07:58:10.478Z,15.63
2019-05-01T08:00:57.193Z,15.68
2019-05-01T08:03:27.308Z,15.80
2019-05-01T08:05:57.586Z,17.65
2019-05-01T08:08:29.317Z,16.87
2019-05-01T08:11:04.870Z,15.70
2019-05-01T08:13:35.110Z,15.15
2019-05-01T08:16:07.103Z,15.47
2019-05-01T08:18:37.553Z,16.07
2019-05-01T08:21:21.258Z,15.17
2019-05-01T08:23:50.423Z,16.23
2019-05-01T08:26:21.439Z,16.65
2019-05-01T08:29:09.514Z,19.30
2019-05-01T08:31:41.598Z,21.75
2019-05-01T08:34:20.692Z,19.57
2019-05-01T08:36:49.058Z,21.97
2019-05-01T08:39:19.498Z,19.37
2019-05-01T08:41:50.304Z,17.82
2019-05-01T08:44:24.904Z,19.42
2019-05-01T08:46:56.051Z,18.65
2019-05-01T08:49:34.083Z,16.60
2019-05-01T08:52:04.727Z,15.55
2019-05-01T08:54:36.269Z,15.23
2019-05-01T08:57:07.995Z,16.55
2019-05-01T08:59:38.291Z,16.95
2019-05-01T09:02:10.518Z,17.57
2019-05-01T09:04:43.731Z,15.75
2019-05-01T09:07:14.611Z,15.18
2019-05-01T09:09:47.405Z,15.23
2019-05-01T09:12:18.990Z,15.58
2019-05-01T09:14:51.198Z,17.87
2019-05-01T09:17:21.904Z,16.42
2019-05-01T09:19:51.997Z,17.62
2019-05-01T09:22:22.623Z,17.02
2019-05-01T09:24:53.334Z,17.95
2019-05-01T09:27:29.404Z,16.87
2019-05-01T09:30:05.546Z,16.67
2019-05-01T09:32:35.972Z,17.98
2019-05-01T09:35:15.380Z,18.57
2019-05-01T09:37:40.055Z,16.85
2019-05-01T09:40:10.530Z,17.42
2019-05-01T09:42:44.405Z,17.00
2019-05-01T09:45:17.633Z,16.48
2019-05-01T09:47:48.105Z,16.35
2019-05-01T09:50:21.553Z,15.35
2019-05-01T09:53:11.316Z,16.20
2019-05-01T09:55:42.983Z,15.10
2019-05-01T09:58:13.343Z,14.20
2019-05-01T10:00:43.626Z,13.48
2019-05-01T10:03:16.921Z,14.45
2019-05-01T10:05:45.670Z,13.00
2019-05-01T10:08:15.580Z,13.88
2019-05-01T10:10:45.947Z,13.83
2019-05-01T10:13:17.686Z,14.95
2019-05-01T10:18:18.119Z,14.35
2019-05-01T10:20:49.605Z,15.20
2019-05-01T10:23:19.997Z,14.20
2019-05-01T10:25:51.996Z,12.55
2019-05-01T10:28:40.418Z,11.88
2019-05-01T10:31:19.455Z,11.95
2019-05-01T10:33:54.343Z,12.88
2019-05-01T10:36:35.161Z,11.85
2019-05-01T10:39:07.490Z,10.93
2019-05-01T10:41:41.235Z,9.80
2019-05-01T10:44:12.274Z,9.40
2019-05-01T10:46:42.221Z,10.05
2019-05-01T10:49:12.498Z,10.08
2019-05-01T10:51:43.053Z,10.20
2019-05-01T10:54:13.037Z,8.40
2019-05-01T10:56:43.430Z,9.05
2019-05-01T10:59:13.472Z,8.55
2019-05-01T11:01:48.285Z,8.60
2019-05-01T11:04:18.719Z,8.50
2019-05-01T11:06:49.117Z,8.20
2019-05-01T11:09:19.531Z,8.50
2019-05-01T11:11:49.795Z,8.48
2019-05-01T11:14:22.247Z,9.60
2019-05-01T11:16:54.346Z,9.00
2019-05-01T11:19:29.574Z,8.83
2019-05-01T11:22:02.284Z,8.63
2019-05-01T11:24:33.338Z,8.98
2019-05-01T11:27:04.785Z,9.33
2019-05-01T11:29:35.185Z,8.47
2019-05-01T11:32:15.394Z,8.48
2019-05-01T11:34:52.640Z,9.63
2019-05-01T11:37:40.393Z,9.88
2019-05-01T11:40:15.482Z,9.78
2019-05-01T11:42:45.775Z,10.23
2019-05-01T11:45:16.280Z,10.23
2019-05-01T11:47:46.600Z,9.63
2019-05-01T11:50:16.960Z,8.70
2019-05-01T11:52:47.181Z,8.20
2019-05-01T11:55:17.564Z,8.35
2019-05-01T11:57:47.866Z,9.18
2019-05-01T12:00:19.390Z,9.23
2019-05-01T12:02:49.435Z,8.75
2019-05-01T12:05:19.460Z,9.50
2019-05-01T12:07:49.686Z,8.83
2019-05-01T12:10:19.939Z,8.13
2019-05-01T12:12:50.321Z,8.45
2019-05-01T12:15:20.745Z,8.80
2019-05-01T12:17:51.513Z,8.05
2019-05-01T12:20:23.194Z,8.83
2019-05-01T12:22:53.359Z,8.75
2019-05-01T12:25:23.765Z,8.43
2019-05-01T12:27:54.045Z,7.80
2019-05-01T12:30:24.371Z,7.97
2019-05-01T12:32:55.618Z,9.47
2019-05-01T12:35:25.512Z,8.93
2019-05-01T12:37:57.256Z,8.23
2019-05-01T12:40:27.618Z,9.03
2019-05-01T12:42:57.625Z,8.18
2019-05-01T12:45:27.946Z,9.50
2019-05-01T12:48:01.960Z,7.80
2019-05-01T12:50:31.974Z,8.15
2019-05-01T12:53:03.842Z,10.05
2019-05-01T12:55:50.304Z,9.10
2019-05-01T12:58:20.355Z,8.90
2019-05-01T13:00:52.268Z,8.68
2019-05-01T13:03:22.186Z,8.38
2019-05-01T13:05:52.408Z,8.53
2019-05-01T13:08:22.310Z,8.15
2019-05-01T13:10:52.381Z,7.75
2019-05-01T13:13:22.628Z,7.85
2019-05-01T13:15:53.927Z,8.15
2019-05-01T13:18:23.977Z,7.87
2019-05-01T13:20:54.191Z,7.78
2019-05-01T13:23:24.389Z,7.33
2019-05-01T13:25:56.317Z,7.30
2019-05-01T13:28:36.997Z,8.10
2019-05-01T13:31:23.778Z,8.35
2019-05-01T13:33:53.681Z,7.47
2019-05-01T13:36:23.951Z,8.43
2019-05-01T13:38:54.123Z,7.58
2019-05-01T13:41:24.404Z,7.97
2019-05-01T13:43:54.695Z,8.13
2019-05-01T13:46:24.558Z,7.80
2019-05-01T13:48:54.761Z,8.30
2019-05-01T13:51:24.683Z,8.33
2019-05-01T13:53:54.539Z,8.00
2019-05-01T13:56:24.726Z,8.65
2019-05-01T13:58:54.965Z,9.43
2019-05-01T14:01:25.277Z,8.33
2019-05-01T14:03:55.355Z,8.43
2019-05-01T14:06:25.899Z,7.22
2019-05-01T14:08:55.989Z,7.12
2019-05-01T14:11:26.080Z,7.40
2019-05-01T14:13:56.438Z,6.50
2019-05-01T14:16:26.818Z,7.50
2019-05-01T14:18:56.974Z,7.00
2019-05-01T14:21:31.674Z,8.35
2019-05-01T14:24:03.751Z,7.12
2019-05-01T14:26:34.793Z,8.50
2019-05-01T14:29:05.398Z,6.80
2019-05-01T14:31:35.675Z,7.58
2019-05-01T14:34:07.063Z,8.47
2019-05-01T14:36:36.981Z,6.67
2019-05-01T14:39:07.677Z,7.62
2019-05-01T14:41:39.430Z,7.03
2019-05-01T14:44:09.851Z,7.70
2019-05-01T14:46:41.053Z,6.75
2019-05-01T14:49:11.355Z,7.60
2019-05-01T14:51:41.874Z,7.00
2019-05-01T14:54:22.525Z,7.42
2019-05-01T14:56:58.730Z,10.55
2019-05-01T14:59:29.094Z,6.47
2019-05-01T15:01:59.235Z,6.97
2019-05-01T15:04:29.515Z,6.78
2019-05-01T15:06:59.943Z,7.92
2019-05-01T15:09:30.099Z,7.12
2019-05-01T15:12:00.374Z,7.33
2019-05-01T15:14:31.927Z,7.78
2019-05-01T15:17:12.702Z,7.40
2019-05-01T15:19:44.316Z,7.58
2019-05-01T15:22:14.441Z,8.10
2019-05-01T15:24:44.689Z,8.65
2019-05-01T15:27:15.887Z,7.67
2019-05-01T15:29:46.799Z,7.45
2019-05-01T15:32:16.882Z,6.25
2019-05-01T15:34:46.814Z,7.55
2019-05-01T15:37:16.998Z,6.10
2019-05-01T15:39:54.306Z,7.67
2019-05-01T15:42:38.977Z,7.22
2019-05-01T15:45:09.512Z,8.53
2019-05-01T15:47:39.658Z,8.43
2019-05-01T15:50:10.824Z,8.80
2019-05-01T15:52:41.067Z,8.83
2019-05-01T15:55:11.457Z,6.60
2019-05-01T15:57:41.657Z,6.80
2019-05-01T16:00:14.341Z,6.03
2019-05-01T16:02:45.515Z,8.08
2019-05-01T16:05:15.535Z,7.45
2019-05-01T16:07:45.781Z,8.00
2019-05-01T16:10:17.963Z,7.03
2019-05-01T16:12:49.542Z,7.72
2019-05-01T16:15:21.892Z,7.10
2019-05-01T16:20:21.093Z,7.10
2019-05-01T16:22:53.291Z,5.62
2019-05-01T16:25:23.554Z,6.08
2019-05-01T16:27:53.721Z,5.95
2019-05-01T16:30:25.549Z,6.00
2019-05-01T16:32:55.684Z,6.30
2019-05-01T16:35:25.849Z,5.90
2019-05-01T16:37:58.038Z,6.10
2019-05-01T16:40:32.402Z,5.95
2019-05-01T16:43:02.690Z,5.95
2019-05-01T16:45:33.094Z,6.40
2019-05-01T16:48:02.928Z,5.90
2019-05-01T16:50:33.231Z,6.60
2019-05-01T16:53:03.689Z,6.03
2019-05-01T16:55:34.036Z,7.08
2019-05-01T16:58:06.072Z,5.90
2019-05-01T17:01:00.798Z,6.20
2019-05-01T17:03:39.890Z,5.47
2019-05-01T17:06:14.817Z,6.00
2019-05-01T17:08:46.636Z,6.37
2019-05-01T17:11:18.153Z,6.70
2019-05-01T17:13:48.614Z,6.10
2019-05-01T17:16:22.874Z,5.95
2019-05-01T17:18:53.061Z,6.25
2019-05-01T17:21:23.272Z,5.60
2019-05-01T17:23:53.492Z,6.05
2019-05-01T17:26:23.771Z,5.97
2019-05-01T17:28:53.758Z,6.03
2019-05-01T17:31:25.524Z,4.80
2019-05-01T17:33:56.868Z,5.45
2019-05-01T17:36:27.339Z,6.22
2019-05-01T17:38:57.613Z,5.30
2019-05-01T17:41:28.667Z,5.17
2019-05-01T17:43:59.236Z,5.58
2019-05-01T17:46:30.816Z,6.30
2019-05-01T17:49:04.356Z,6.40
2019-05-01T17:51:32.924Z,5.42
2019-05-01T17:54:03.247Z,5.40
2019-05-01T17:56:34.820Z,5.60
2019-05-01T17:59:04.834Z,5.47
2019-05-01T18:01:45.601Z,5.72
2019-05-01T18:04:22.768Z,4.72
2019-05-01T18:06:53.066Z,5.60
2019-05-01T18:09:23.369Z,5.28
2019-05-01T18:11:53.840Z,5.35
2019-05-01T18:14:24.838Z,5.33
2019-05-01T18:17:03.241Z,5.40
2019-05-01T18:19:33.355Z,5.00
2019-05-01T18:22:05.591Z,6.10
2019-05-01T18:24:48.668Z,6.10
2019-05-01T18:27:39.752Z,6.42
2019-05-01T18:30:15.790Z,6.08
2019-05-01T18:32:46.884Z,5.65
2019-05-01T18:35:16.135Z,5.42
2019-05-01T18:37:50.752Z,5.92
2019-05-01T18:40:22.492Z,6.33
2019-05-01T18:42:52.786Z,6.03
2019-05-01T18:45:46.239Z,5.55
2019-05-01T18:48:18.273Z,6.25
2019-05-01T18:50:54.513Z,5.55
2019-05-01T18:53:21.440Z,7.00
2019-05-01T18:55:52.535Z,9.78
2019-05-01T18:58:22.968Z,9.55
2019-05-01T19:00:54.377Z,8.28
2019-05-01T19:03:24.833Z,7.33
2019-05-01T19:05:55.433Z,7.10
2019-05-01T19:08:25.851Z,6.58
2019-05-01T19:10:56.420Z,6.17
2019-05-01T19:13:27.015Z,6.67
2019-05-01T19:16:11.306Z,6.83
2019-05-01T19:18:41.792Z,6.58
2019-05-01T19:21:12.758Z,8.20
2019-05-01T19:23:43.039Z,8.53
2019-05-01T19:26:13.925Z,7.67
2019-05-01T19:28:44.020Z,7.17
2019-05-01T19:31:14.512Z,7.00
2019-05-01T19:33:44.452Z,7.28
2019-05-01T19:36:14.751Z,7.03
2019-05-01T19:38:45.164Z,8.80
2019-05-01T19:41:16.607Z,8.00
2019-05-01T19:43:46.862Z,9.05
2019-05-01T19:46:18.196Z,8.78
2019-05-01T19:48:50.890Z,8.33
2019-05-01T19:51:24.133Z,8.43
2019-05-01T19:53:53.518Z,6.93
2019-05-01T19:56:24.043Z,8.40
2019-05-01T19:58:54.315Z,7.50
2019-05-01T20:01:24.601Z,7.58
2019-05-01T20:03:54.732Z,7.60
2019-05-01T20:06:25.193Z,7.87
2019-05-01T20:08:55.329Z,7.40
2019-05-01T20:11:25.832Z,7.22
2019-05-01T20:13:56.410Z,6.58
2019-05-01T20:16:26.508Z,7.22
2019-05-01T20:18:56.519Z,7.35
2019-05-01T20:21:26.872Z,6.85
2019-05-01T20:23:58.503Z,7.50
2019-05-01T20:26:32.032Z,6.90
2019-05-01T20:29:00.589Z,6.70
2019-05-01T20:31:32.920Z,7.50
2019-05-01T20:34:02.943Z,6.77
2019-05-01T20:36:33.592Z,7.20
2019-05-01T20:39:06.939Z,6.87
2019-05-01T20:41:38.006Z,7.08
2019-05-01T20:44:08.203Z,7.12
2019-05-01T20:46:38.370Z,7.47
2019-05-01T20:49:09.727Z,5.97
2019-05-01T20:51:39.961Z,6.55
2019-05-01T20:54:10.270Z,7.08
2019-05-01T20:56:44.733Z,7.33
2019-05-01T20:59:15.063Z,6.40
2019-05-01T21:01:45.332Z,6.05
2019-05-01T21:04:25.768Z,6.75
2019-05-01T21:07:19.768Z,7.12
2019-05-01T21:09:56.898Z,7.33
2019-05-01T21:12:21.647Z,6.90
2019-05-01T21:14:52.055Z,6.55
2019-05-01T21:17:22.184Z,6.60
2019-05-01T21:19:52.086Z,7.03
2019-05-01T21:22:23.448Z,6.37
2019-05-01T21:24:53.746Z,7.15
2019-05-01T21:27:24.398Z,6.28
2019-05-01T21:29:54.812Z,6.78
2019-05-01T21:32:27.346Z,6.42
2019-05-01T21:34:56.528Z,6.70
2019-05-01T21:37:26.738Z,6.50
2019-05-01T21:39:57.973Z,6.75
2019-05-01T21:42:28.345Z,7.12
2019-05-01T21:45:00.162Z,6.60
2019-05-01T21:47:33.428Z,6.33
2019-05-01T21:50:03.799Z,8.18
2019-05-01T21:52:34.082Z,6.78
2019-05-01T21:55:05.263Z,6.47
2019-05-01T21:57:38.695Z,6.65
2019-05-01T22:00:09.122Z,7.83
2019-05-01T22:02:41.627Z,6.67
2019-05-01T22:05:12.733Z,8.10
2019-05-01T22:07:43.002Z,7.15
2019-05-01T22:10:13.307Z,7.70
2019-05-01T22:12:43.857Z,7.37
2019-05-01T22:15:35.133Z,6.57
2019-05-01T22:18:15.942Z,7.03
2019-05-01T22:20:54.441Z,7.65
2019-05-01T22:23:28.709Z,7.75
2019-05-01T22:26:00.449Z,6.80
2019-05-01T22:28:44.266Z,7.35
2019-05-01T22:31:32.300Z,6.62
2019-05-01T22:34:04.185Z,7.62
2019-05-01T22:36:34.549Z,6.72
2019-05-01T22:39:07.322Z,6.92
2019-05-01T22:41:38.888Z,7.60
2019-05-01T22:44:12.818Z,7.40
2019-05-01T22:49:11.291Z,7.95
2019-05-01T22:51:41.570Z,6.47
2019-05-01T22:54:11.699Z,7.03
2019-05-01T22:56:41.926Z,7.85
2019-05-01T22:59:12.355Z,7.30
2019-05-01T23:01:44.277Z,7.62
2019-05-01T23:04:17.102Z,7.70
2019-05-01T23:06:46.203Z,6.80
2019-05-01T23:09:18.433Z,7.50
2019-05-01T23:11:48.761Z,8.20
2019-05-01T23:14:19.074Z,8.00
2019-05-01T23:16:53.402Z,7.20
2019-05-01T23:19:27.743Z,7.53
2019-05-01T23:21:58.209Z,8.78
2019-05-01T23:24:27.353Z,7.50
2019-05-01T23:26:57.352Z,7.17
2019-05-01T23:29:27.223Z,8.33
2019-05-01T23:31:57.795Z,7.20
2019-05-01T23:34:28.003Z,8.10
2019-05-01T23:36:58.321Z,7.97
2019-05-01T23:39:28.420Z,8.15
2019-05-01T23:41:58.637Z,7.65
2019-05-01T23:44:28.738Z,7.83
2019-05-01T23:46:59.068Z,7.12
2019-05-01T23:49:29.252Z,7.70
2019-05-01T23:52:03.383Z,8.33
2019-05-01T23:54:30.962Z,7.92
2019-05-01T23:57:01.200Z,8.18
2019-05-01T23:59:31.370Z,7.47
